Time;durP1;ratioP1;P1;durP2;ratioP2;P2;SDS_P1;SDS_P2;PMS_P1;PMS_P2;Temp;Humidity;BMP_temperature;BMP_pressure;BME280_temperature;BME280_humidity;BME280_pressure;Samples;Min_cycle;Max_cycle;Signal;HPM_P1;HPM_P2
2021/07/21 00:00:37;;;;;;;14.53;12.30;;;;;;;20.30;100.00;99741.98;1757043;79;21094;-73
2021/07/21 00:03:04;;;;;;;14.00;12.40;;;;;;;20.34;100.00;99743.45;1759591;79;21043;-73
2021/07/21 00:05:31;;;;;;;14.27;12.40;;;;;;;20.36;100.00;99739.23;1755033;79;21162;-73
2021/07/21 00:07:58;;;;;;;13.00;11.33;;;;;;;20.38;100.00;99742.41;1764684;79;21094;-74
2021/07/21 00:10:26;;;;;;;13.83;11.87;;;;;;;20.39;100.00;99746.69;1768368;79;20981;-73
2021/07/21 00:15:47;;;;;;;13.23;11.53;;;;;;;20.42;100.00;99747.16;1767244;79;21821;-74
2021/07/21 00:18:21;;;;;;;13.17;11.63;;;;;;;20.38;100.00;99750.55;1753422;79;21336;-74
2021/07/21 00:20:44;;;;;;;13.50;12.05;;;;;;;20.38;100.00;99751.91;1761357;79;21019;-73
2021/07/21 00:23:10;;;;;;;13.30;11.83;;;;;;;20.39;100.00;99748.05;1762205;79;21016;-73
2021/07/21 00:25:37;;;;;;;15.87;12.77;;;;;;;20.41;100.00;99741.52;1759418;79;21176;-73
2021/07/21 00:28:04;;;;;;;13.73;11.10;;;;;;;20.36;100.00;99744.66;1758980;79;21051;-73
2021/07/21 00:30:30;;;;;;;14.43;12.17;;;;;;;20.32;100.00;99741.63;1760684;79;21504;-73
2021/07/21 00:32:57;;;;;;;14.37;12.77;;;;;;;20.28;100.00;99739.39;1752610;79;21046;-74
2021/07/21 00:35:26;;;;;;;14.57;13.03;;;;;;;20.29;100.00;99741.74;1761560;79;20980;-73
2021/07/21 00:37:53;;;;;;;14.30;11.90;;;;;;;20.32;100.00;99738.92;1760779;80;21031;-73
2021/07/21 00:40:21;;;;;;;17.03;13.63;;;;;;;20.33;100.00;99742.63;1749687;80;20960;-73
2021/07/21 00:42:50;;;;;;;13.63;11.23;;;;;;;20.35;100.00;99745.02;1766143;79;21789;-73
2021/07/21 00:45:16;;;;;;;13.83;12.27;;;;;;;20.38;100.00;99747.05;1758419;79;21376;-74
2021/07/21 00:47:43;;;;;;;15.80;12.80;;;;;;;20.35;100.00;99741.73;1757724;79;21541;-74
2021/07/21 00:50:11;;;;;;;16.13;12.53;;;;;;;20.35;100.00;99734.95;1755798;79;21679;-74
2021/07/21 00:52:40;;;;;;;16.60;13.33;;;;;;;20.36;100.00;99733.81;1760726;79;21419;-73
2021/07/21 00:55:10;;;;;;;16.73;13.77;;;;;;;20.38;100.00;99734.84;1748542;80;21094;-73
2021/07/21 00:57:37;;;;;;;15.87;13.20;;;;;;;20.39;100.00;99729.06;1755169;79;21000;-73
2021/07/21 01:00:06;;;;;;;15.17;13.50;;;;;;;20.41;100.00;99729.30;1747413;79;21243;-72
2021/07/21 01:02:35;;;;;;;14.78;12.82;;;;;;;20.43;100.00;99723.73;1755160;79;24079;-72
2021/07/21 01:05:07;;;;;;;14.67;13.10;;;;;;;20.45;100.00;99727.48;1717736;83;21656;-72
2021/07/21 01:07:37;;;;;;;14.90;13.17;;;;;;;20.44;100.00;99719.91;1709977;81;21299;-73
2021/07/21 01:10:05;;;;;;;15.40;13.27;;;;;;;20.45;100.00;99723.41;1721080;81;21097;-73
2021/07/21 01:12:38;;;;;;;15.03;13.37;;;;;;;20.44;100.00;99717.20;1743937;80;21585;-73
2021/07/21 01:15:19;;;;;;;17.97;13.53;;;;;;;20.45;100.00;99716.06;1731827;80;20980;-74
2021/07/21 01:18:07;;;;;;;16.90;14.30;;;;;;;20.46;100.00;99711.42;1732230;80;21231;-73
2021/07/21 01:20:58;;;;;;;17.13;13.33;;;;;;;20.45;100.00;99711.20;1743598;80;21490;-74
2021/07/21 01:23:33;;;;;;;16.50;14.17;;;;;;;20.45;100.00;99710.63;1729430;80;21491;-74
2021/07/21 01:26:14;;;;;;;17.60;14.40;;;;;;;20.43;100.00;99710.17;1754820;80;21601;-75
2021/07/21 01:28:47;;;;;;;15.57;13.90;;;;;;;20.42;100.00;99716.74;1775098;79;20956;-74
2021/07/21 01:31:20;;;;;;;17.63;14.57;;;;;;;20.42;100.00;99721.38;1736493;79;21125;-73
2021/07/21 01:33:48;;;;;;;17.30;15.17;;;;;;;20.39;100.00;99720.92;1767672;79;21081;-73
2021/07/21 01:36:22;;;;;;;20.53;16.10;;;;;;;20.39;100.00;99723.64;1767526;79;21042;-74
2021/07/21 01:38:55;;;;;;;16.50;14.70;;;;;;;20.38;100.00;99722.06;1716917;81;21088;-74
2021/07/21 01:41:28;;;;;;;22.13;16.23;;;;;;;20.38;100.00;99712.58;1751002;79;21063;-73
2021/07/21 01:43:59;;;;;;;18.60;16.27;;;;;;;20.38;100.00;99713.93;1754688;79;21498;-74
2021/07/21 01:46:26;;;;;;;19.27;16.37;;;;;;;20.38;100.00;99711.22;1770779;78;21734;-72
2021/07/21 01:48:55;;;;;;;18.77;16.63;;;;;;;20.38;100.00;99707.16;1753002;80;21083;-72
2021/07/21 01:51:24;;;;;;;20.83;17.93;;;;;;;20.37;100.00;99705.58;1742344;79;21082;-72
2021/07/21 01:53:54;;;;;;;20.83;17.27;;;;;;;20.37;100.00;99696.09;1732804;81;21440;-73
2021/07/21 01:56:22;;;;;;;23.92;18.92;;;;;;;20.40;100.00;99695.97;1743897;79;21062;-73
2021/07/21 01:58:53;;;;;;;20.47;17.57;;;;;;;20.39;100.00;99694.38;1752116;80;21461;-73
2021/07/21 02:01:28;;;;;;;19.75;17.70;;;;;;;20.37;100.00;99702.87;1751005;79;21089;-73
2021/07/21 02:03:58;;;;;;;22.67;18.33;;;;;;;20.35;100.00;99701.63;1715181;81;21109;-72
2021/07/21 02:06:27;;;;;;;21.03;17.93;;;;;;;20.33;100.00;99697.09;1751011;79;21476;-73
2021/07/21 02:08:56;;;;;;;23.70;18.07;;;;;;;20.30;100.00;99702.66;1716236;81;21176;-72
2021/07/21 02:11:25;;;;;;;22.00;18.43;;;;;;;20.27;100.00;99697.11;1735836;80;21781;-72
2021/07/21 02:13:55;;;;;;;21.43;18.97;;;;;;;20.26;100.00;99700.39;1742940;80;20949;-73
2021/07/21 02:16:23;;;;;;;;;;;;;;;20.27;100.00;99704.70;1743007;81;21042;-72
2021/07/21 02:18:57;;;;;;;22.67;20.20;;;;;;;20.29;100.00;99709.20;1743699;80;20233;-73
2021/07/21 02:21:26;;;;;;;22.40;19.63;;;;;;;20.30;100.00;99705.92;1751766;80;20999;-73
2021/07/21 02:23:54;;;;;;;23.67;19.67;;;;;;;20.31;100.00;99704.80;1745442;80;21526;-72
2021/07/21 02:26:40;;;;;;;24.17;19.17;;;;;;;20.32;100.00;99705.80;1701831;81;21151;-73
2021/07/21 02:29:07;;;;;;;25.80;19.93;;;;;;;20.34;100.00;99702.77;1751956;80;21447;-73
2021/07/21 02:31:41;;;;;;;23.30;19.93;;;;;;;20.32;100.00;99701.73;1723807;81;21210;-74
2021/07/21 02:34:08;;;;;;;24.70;20.82;;;;;;;20.31;100.00;99700.17;1748300;80;20932;-74
2021/07/21 02:36:35;;;;;;;26.57;20.63;;;;;;;20.30;100.00;99701.31;1753573;81;22093;-74
2021/07/21 02:39:05;;;;;;;23.57;19.97;;;;;;;20.29;100.00;99704.34;1736298;81;21613;-74
2021/07/21 02:41:35;;;;;;;23.33;20.83;;;;;;;20.30;100.00;99701.31;1748742;80;21165;-73
2021/07/21 02:44:06;;;;;;;24.73;21.60;;;;;;;20.32;100.00;99707.16;1703878;81;21070;-74
2021/07/21 02:46:35;;;;;;;27.30;22.00;;;;;;;20.32;100.00;99708.52;1761991;79;21617;-73
2021/07/21 02:49:02;;;;;;;30.70;23.37;;;;;;;20.36;100.00;99714.05;1758939;80;21128;-74
2021/07/21 02:51:50;;;;;;;28.53;22.70;;;;;;;20.38;100.00;99715.28;1715385;81;21048;-74
2021/07/21 02:54:33;;;;;;;30.07;23.17;;;;;;;20.39;100.00;99712.78;1747384;79;21569;-73
2021/07/21 02:57:22;;;;;;;27.40;22.97;;;;;;;20.42;100.00;99712.67;1751639;79;21012;-74
2021/07/21 02:59:51;;;;;;;29.10;22.57;;;;;;;20.44;100.00;99709.63;1747855;80;20981;-73
2021/07/21 03:02:26;;;;;;;29.27;22.05;;;;;;;20.45;100.00;99709.84;1697250;81;21347;-73
2021/07/21 03:04:55;;;;;;;29.30;22.57;;;;;;;20.45;100.00;99715.27;1745503;79;21091;-72
2021/07/21 03:07:27;;;;;;;28.13;21.70;;;;;;;20.44;100.00;99719.13;1753504;79;20928;-73
2021/07/21 03:09:54;;;;;;;25.50;20.47;;;;;;;20.44;100.00;99720.48;1729367;79;21062;-73
2021/07/21 03:12:23;;;;;;;25.60;20.70;;;;;;;20.42;100.00;99729.52;1712983;81;21086;-72
2021/07/21 03:15:12;;;;;;;24.63;20.33;;;;;;;20.38;100.00;99741.63;1732034;81;21083;-73
2021/07/21 03:17:42;;;;;;;23.67;19.63;;;;;;;20.34;100.00;99746.95;1733363;81;20955;-73
2021/07/21 03:20:10;;;;;;;24.27;20.27;;;;;;;20.34;99.55;99751.58;1721090;81;20956;-73
2021/07/21 03:22:39;;;;;;;23.13;19.13;;;;;;;20.33;99.27;99755.41;1719925;81;21006;-73
2021/07/21 03:25:09;;;;;;;24.67;20.80;;;;;;;20.32;99.05;99750.55;1739660;79;21033;-74
2021/07/21 03:27:40;;;;;;;23.67;20.20;;;;;;;20.31;98.67;99757.12;1751093;79;21521;-74
2021/07/21 03:30:11;;;;;;;23.10;19.97;;;;;;;20.29;98.08;99753.95;1748280;79;20972;-74
2021/07/21 03:32:42;;;;;;;21.52;19.05;;;;;;;20.23;97.17;99753.95;1764895;80;20996;-73
2021/07/21 03:35:10;;;;;;;25.00;21.27;;;;;;;20.17;96.81;99751.27;1751513;80;21503;-74
2021/07/21 03:37:44;;;;;;;29.17;20.23;;;;;;;20.12;96.26;99755.56;1717263;79;21039;-73
2021/07/21 03:40:12;;;;;;;25.07;21.43;;;;;;;20.06;95.65;99757.70;1756498;79;21713;-74
2021/07/21 03:42:39;;;;;;;25.93;22.23;;;;;;;20.00;95.40;99760.98;1757003;79;21068;-74
2021/07/21 03:45:12;;;;;;;24.27;20.67;;;;;;;19.96;95.43;99762.22;1733181;80;21079;-73
2021/07/21 03:47:42;;;;;;;25.67;21.50;;;;;;;19.94;95.28;99767.21;1758713;79;21697;-74
2021/07/21 03:50:10;;;;;;;24.03;20.60;;;;;;;19.90;95.11;99773.06;1757666;79;21024;-73
2021/07/21 03:52:41;;;;;;;25.43;21.07;;;;;;;19.84;94.92;99768.45;1765846;79;21302;-75
2021/07/21 03:55:10;;;;;;;24.17;21.20;;;;;;;19.79;94.84;99759.74;1760706;79;21046;-73
2021/07/21 03:57:47;;;;;;;24.00;21.40;;;;;;;19.76;95.01;99761.20;1662113;84;21081;-73
2021/07/21 04:00:17;;;;;;;28.43;21.97;;;;;;;19.73;95.16;99763.23;1746325;79;21063;-73
2021/07/21 04:02:52;;;;;;;28.17;22.62;;;;;;;19.70;95.40;99767.97;1740630;79;21050;-74
2021/07/21 04:05:19;;;;;;;23.57;19.30;;;;;;;19.66;95.78;99765.71;1744004;79;21085;-74
2021/07/21 04:07:46;;;;;;;27.13;22.23;;;;;;;19.65;96.06;99763.57;1742715;79;21184;-73
2021/07/21 04:10:14;;;;;;;23.37;20.53;;;;;;;19.65;96.28;99758.72;1742114;79;21062;-74
2021/07/21 04:12:50;;;;;;;23.80;20.50;;;;;;;19.66;96.50;99766.50;1742688;79;21043;-74
2021/07/21 04:15:23;;;;;;;25.90;22.20;;;;;;;19.67;96.43;99765.92;1737983;79;21708;-74
2021/07/21 04:18:02;;;;;;;26.30;21.87;;;;;;;19.66;96.42;99765.71;1747733;79;21774;-73
2021/07/21 04:20:30;;;;;;;24.30;21.33;;;;;;;19.65;96.45;99760.08;1741739;79;21035;-74
2021/07/21 04:22:57;;;;;;;24.63;21.60;;;;;;;19.61;96.31;99757.76;1746135;79;21616;-74
2021/07/21 04:25:24;;;;;;;26.13;22.27;;;;;;;19.56;96.34;99770.19;1741610;79;21059;-74
2021/07/21 04:27:53;;;;;;;25.87;21.83;;;;;;;19.53;96.48;99777.63;1741664;79;21067;-73
2021/07/21 04:30:21;;;;;;;27.20;22.30;;;;;;;19.50;96.58;99768.81;1694717;80;21955;-75
2021/07/21 04:32:49;;;;;;;25.47;21.93;;;;;;;19.51;96.66;99767.11;1742821;79;21740;-73
2021/07/21 04:35:19;;;;;;;28.07;21.00;;;;;;;19.48;96.73;99770.52;1740617;79;21093;-73
2021/07/21 04:37:48;;;;;;;25.03;21.47;;;;;;;19.46;96.86;99765.98;1722953;81;21042;-73
2021/07/21 04:40:15;;;;;;;24.87;20.67;;;;;;;19.44;97.07;99759.53;1745231;79;21196;-74
2021/07/21 04:42:52;;;;;;;25.20;20.93;;;;;;;19.45;97.29;99765.20;1658489;84;21546;-73
2021/07/21 04:45:19;;;;;;;23.47;19.77;;;;;;;19.44;97.47;99755.47;1743333;79;21161;-73
2021/07/21 04:47:46;;;;;;;26.37;21.17;;;;;;;19.42;97.40;99759.10;1741903;79;21026;-72
2021/07/21 04:50:16;;;;;;;23.57;19.87;;;;;;;19.42;97.42;99756.39;1746527;79;21094;-73
2021/07/21 04:52:43;;;;;;;23.67;20.73;;;;;;;19.40;97.25;99764.05;1742295;79;21601;-73
2021/07/21 04:55:11;;;;;;;23.73;19.93;;;;;;;19.37;97.15;99765.28;1746080;79;21944;-74
2021/07/21 04:57:42;;;;;;;22.17;19.77;;;;;;;19.35;97.13;99763.49;1741175;79;21087;-72
2021/07/21 05:00:11;;;;;;;24.13;21.50;;;;;;;19.35;97.22;99768.34;1728984;80;21030;-73
2021/07/21 05:02:42;;;;;;;23.10;20.57;;;;;;;19.38;97.21;99774.44;1722530;79;21115;-72
2021/07/21 05:05:11;;;;;;;26.13;21.47;;;;;;;19.42;97.32;99779.41;1745844;79;21590;-72
2021/07/21 05:07:40;;;;;;;24.50;21.77;;;;;;;19.50;97.47;99789.13;1743401;79;21194;-73
2021/07/21 05:10:11;;;;;;;25.05;21.27;;;;;;;19.58;97.19;99790.97;1743840;79;28456;-73
2021/07/21 05:12:44;;;;;;;26.10;21.73;;;;;;;19.67;97.01;99797.08;1745528;79;21007;-74
2021/07/21 05:15:12;;;;;;;22.07;19.40;;;;;;;19.76;96.67;99796.99;1750388;79;21031;-74
2021/07/21 05:17:39;;;;;;;22.47;19.97;;;;;;;19.80;95.68;99797.33;1746261;79;21458;-73
2021/07/21 05:20:09;;;;;;;21.43;18.37;;;;;;;19.82;95.34;99795.08;1736684;79;20955;-74
2021/07/21 05:22:45;;;;;;;22.23;18.07;;;;;;;19.87;94.70;99803.00;1743923;79;21015;-74
2021/07/21 05:25:09;;;;;;;18.50;15.13;;;;;;;19.91;93.68;99795.77;1739679;79;20959;-74
2021/07/21 05:27:37;;;;;;;18.33;14.83;;;;;;;19.94;91.60;99810.58;1742802;79;21486;-73
2021/07/21 05:30:06;;;;;;;18.10;15.10;;;;;;;19.96;89.45;99808.87;1745655;79;21070;-75
2021/07/21 05:32:34;;;;;;;15.93;14.23;;;;;;;20.04;88.42;99816.91;1745113;79;21580;-73
2021/07/21 05:35:06;;;;;;;19.35;15.60;;;;;;;20.15;87.84;99811.81;1742194;79;21062;-74
2021/07/21 05:37:52;;;;;;;21.00;15.40;;;;;;;20.32;87.22;99810.22;1736951;79;21011;-74
2021/07/21 05:40:20;;;;;;;18.50;14.93;;;;;;;20.50;85.80;99804.54;1731711;79;20976;-75
2021/07/21 05:42:55;;;;;;;16.23;13.10;;;;;;;20.66;85.01;99812.23;1738360;81;21466;-74
2021/07/21 05:45:24;;;;;;;16.37;13.43;;;;;;;20.82;84.41;99817.16;1751016;79;22125;-76
2021/07/21 05:47:51;;;;;;;16.17;13.60;;;;;;;20.91;83.25;99814.31;1743871;79;21490;-74
2021/07/21 05:50:18;;;;;;;17.43;13.93;;;;;;;20.91;81.57;99812.17;1752399;79;21060;-74
2021/07/21 05:52:58;;;;;;;15.73;12.83;;;;;;;20.84;81.57;99817.62;1748477;80;21152;-74
2021/07/21 05:55:27;;;;;;;16.87;13.13;;;;;;;20.84;81.20;99812.77;1739090;80;21086;-75
2021/07/21 05:57:54;;;;;;;16.87;12.63;;;;;;;20.92;81.67;99824.60;1744635;80;21125;-73
2021/07/21 06:00:22;;;;;;;16.53;12.10;;;;;;;21.00;81.36;99814.19;1743909;80;21125;-73
2021/07/21 06:02:51;;;;;;;16.30;12.10;;;;;;;21.11;81.20;99814.48;1743895;80;20971;-73
2021/07/21 06:05:19;;;;;;;13.67;12.17;;;;;;;;;;1745185;80;21007;-73
2021/07/21 06:08:00;;;;;;;15.70;12.10;;;;;;;21.16;79.13;99815.03;1713656;80;21066;-72
2021/07/21 06:10:26;;;;;;;14.10;11.40;;;;;;;21.24;79.07;99807.28;1761604;79;21156;-72
2021/07/21 06:12:57;;;;;;;13.67;11.90;;;;;;;21.30;78.35;99804.55;1752565;79;21004;-71
2021/07/21 06:15:30;;;;;;;13.43;11.20;;;;;;;21.35;77.24;99808.17;1746930;79;21043;-72
2021/07/21 06:17:57;;;;;;;12.83;10.77;;;;;;;21.33;77.05;99808.50;1761793;79;21040;-72
2021/07/21 06:20:26;;;;;;;14.90;11.30;;;;;;;21.35;76.85;99808.95;1728279;81;20964;-72
2021/07/21 06:22:52;;;;;;;14.07;10.93;;;;;;;21.34;76.21;99803.85;1752754;81;21116;-71
2021/07/21 06:25:24;;;;;;;13.40;10.03;;;;;;;21.29;75.33;99804.91;1746419;81;20979;-72
2021/07/21 06:28:04;;;;;;;13.23;10.53;;;;;;;21.25;74.95;99799.34;1676836;79;21067;-70
2021/07/21 06:30:34;;;;;;;13.23;9.63;;;;;;;21.27;75.10;99801.16;1749481;79;20987;-72
2021/07/21 06:33:03;;;;;;;15.10;10.83;;;;;;;21.41;75.94;99799.98;1718812;81;21007;-73
2021/07/21 06:35:30;;;;;;;12.43;9.43;;;;;;;21.55;74.84;99798.99;1723199;81;21162;-72
2021/07/21 06:37:58;;;;;;;14.83;10.07;;;;;;;21.63;72.72;99802.13;1754001;79;21053;-72
2021/07/21 06:40:27;;;;;;;11.87;9.03;;;;;;;21.71;72.71;99796.30;1766698;80;20988;-71
2021/07/21 06:42:55;;;;;;;12.43;9.60;;;;;;;21.76;71.60;99785.95;1760531;80;21051;-72
2021/07/21 06:45:22;;;;;;;13.77;9.70;;;;;;;21.85;72.15;99793.13;1752522;79;21636;-72
2021/07/21 06:48:03;;;;;;;12.53;8.83;;;;;;;21.98;71.60;99791.90;1759580;79;21538;-73
2021/07/21 06:50:33;;;;;;;11.67;9.13;;;;;;;22.09;70.40;99801.69;1754829;79;21047;-73
2021/07/21 06:53:01;;;;;;;11.93;9.60;;;;;;;22.16;69.81;99804.02;1757984;79;22521;-72
2021/07/21 06:55:46;;;;;;;11.97;9.60;;;;;;;22.13;69.46;99796.54;1761352;79;21094;-72
2021/07/21 06:58:14;;;;;;;11.73;9.10;;;;;;;22.16;69.67;99793.72;1751714;79;21039;-73
2021/07/21 07:00:57;;;;;;;11.33;8.67;;;;;;;22.18;70.03;99799.03;1761103;79;21188;-74
2021/07/21 07:03:43;;;;;;;11.27;8.70;;;;;;;22.27;69.55;99796.10;1761634;80;20937;-71
2021/07/21 07:06:28;;;;;;;10.97;8.90;;;;;;;22.32;69.18;99792.34;1760564;79;21028;-74
2021/07/21 07:09:14;;;;;;;10.47;8.60;;;;;;;22.36;69.21;99804.09;1762826;79;21110;-73
2021/07/21 07:11:59;;;;;;;10.40;8.53;;;;;;;22.38;68.64;99804.53;1759513;79;21035;-72
2021/07/21 07:14:25;;;;;;;11.47;8.60;;;;;;;22.30;68.87;99810.94;1766641;79;21184;-75
2021/07/21 07:16:54;;;;;;;10.50;8.37;;;;;;;22.29;69.16;99814.23;1761799;79;21491;-71
2021/07/21 07:19:22;;;;;;;12.50;9.37;;;;;;;22.27;68.90;99819.80;1743859;80;21141;-73
2021/07/21 07:21:49;;;;;;;10.67;8.47;;;;;;;22.19;69.03;99811.48;1753699;79;21668;-73
2021/07/21 07:24:15;;;;;;;12.33;8.50;;;;;;;22.17;69.76;99808.31;1756493;79;21102;-72
2021/07/21 07:26:43;;;;;;;10.37;8.30;;;;;;;22.18;69.96;99809.91;1760933;79;21492;-73
2021/07/21 07:29:09;;;;;;;11.47;8.37;;;;;;;22.20;69.89;99805.47;1759963;79;21058;-72
2021/07/21 07:31:36;;;;;;;11.13;8.60;;;;;;;22.18;69.79;99808.55;1757879;79;21585;-73
2021/07/21 07:34:02;;;;;;;11.37;8.13;;;;;;;22.16;69.70;99801.31;1761462;79;21498;-73
2021/07/21 07:36:29;;;;;;;12.33;8.67;;;;;;;22.15;69.72;99798.92;1756099;79;21837;-73
2021/07/21 07:38:56;;;;;;;14.27;8.80;;;;;;;22.16;70.20;99801.31;1762864;79;21501;-72
2021/07/21 07:41:22;;;;;;;10.73;8.33;;;;;;;22.22;70.70;99805.34;1760477;79;21103;-72
2021/07/21 07:43:51;;;;;;;11.83;8.73;;;;;;;22.33;70.71;99810.23;1752832;80;21196;-73
2021/07/21 07:46:20;;;;;;;12.97;8.97;;;;;;;22.41;69.97;99809.27;1745668;79;21819;-73
2021/07/21 07:48:48;;;;;;;11.20;8.43;;;;;;;22.50;69.82;99800.88;1753933;79;21058;-71
2021/07/21 07:51:15;;;;;;;11.83;8.40;;;;;;;22.58;69.57;99801.27;1755137;79;21040;-72
2021/07/21 07:53:41;;;;;;;10.10;8.20;;;;;;;22.62;69.32;99804.85;1755402;79;21480;-73
2021/07/21 07:56:08;;;;;;;11.60;7.93;;;;;;;22.70;69.80;99803.30;1757179;79;21064;-73
2021/07/21 07:58:36;;;;;;;12.70;9.20;;;;;;;22.88;69.49;99811.82;1755519;79;21145;-73
2021/07/21 08:01:03;;;;;;;12.30;8.53;;;;;;;23.06;68.70;99808.11;1753785;79;21038;-72
2021/07/21 08:03:30;;;;;;;11.70;8.73;;;;;;;23.17;67.97;99805.04;1761278;79;21590;-72
2021/07/21 08:05:59;;;;;;;11.63;8.53;;;;;;;23.29;67.36;99804.66;1762074;79;21007;-71
2021/07/21 08:08:29;;;;;;;11.80;9.23;;;;;;;23.45;67.51;99799.11;1758035;79;21035;-72
2021/07/21 08:10:55;;;;;;;11.67;9.00;;;;;;;23.64;67.39;99798.48;1757674;79;21040;-72
2021/07/21 08:13:24;;;;;;;11.30;8.57;;;;;;;23.88;66.72;99795.98;1758293;79;21536;-71
2021/07/21 08:15:53;;;;;;;11.57;8.40;;;;;;;24.11;65.71;99806.08;1747376;79;21091;-74
2021/07/21 08:18:20;;;;;;;10.40;8.30;;;;;;;24.24;65.55;99791.66;1751395;79;21054;-73
2021/07/21 08:20:47;;;;;;;12.50;8.53;;;;;;;24.35;65.01;99806.27;1760110;79;21008;-73
2021/07/21 08:23:15;;;;;;;10.37;7.80;;;;;;;24.36;64.28;99801.00;1721381;81;21043;-73
2021/07/21 08:25:43;;;;;;;9.97;8.10;;;;;;;24.32;63.93;99808.36;1745631;80;21596;-73
2021/07/21 08:28:13;;;;;;;10.50;7.80;;;;;;;24.25;63.89;99806.87;1745695;80;21130;-73
2021/07/21 08:30:41;;;;;;;10.57;7.70;;;;;;;24.20;63.94;99805.25;1745129;80;21576;-73
2021/07/21 08:33:09;;;;;;;9.10;7.60;;;;;;;24.13;63.48;99811.19;1746005;80;21027;-73
2021/07/21 08:35:36;;;;;;;9.23;8.20;;;;;;;23.98;63.96;99812.31;1747928;79;21541;-72
2021/07/21 08:38:03;;;;;;;9.77;7.90;;;;;;;23.89;64.33;99811.80;1745847;80;21620;-73
2021/07/21 08:40:30;;;;;;;12.03;8.77;;;;;;;23.91;65.27;99811.41;1729525;78;79480;-71
2021/07/21 08:42:57;;;;;;;10.90;7.90;;;;;;;23.99;65.55;99812.54;1713911;82;21061;-71
2021/07/21 08:45:24;;;;;;;11.00;8.43;;;;;;;24.07;64.42;99825.70;1704411;82;21057;-70
2021/07/21 08:47:51;;;;;;;10.80;8.27;;;;;;;24.09;63.04;99820.69;1715273;82;21125;-71
2021/07/21 08:50:18;;;;;;;9.77;7.47;;;;;;;24.02;62.33;99811.00;1709492;82;21128;-69
2021/07/21 08:52:44;;;;;;;10.40;8.20;;;;;;;23.92;62.38;99815.12;1710947;82;21324;-70
2021/07/21 08:55:14;;;;;;;10.87;8.20;;;;;;;23.84;62.90;99817.55;1724195;82;21159;-70
2021/07/21 08:57:40;;;;;;;9.10;7.70;;;;;;;23.83;62.99;99807.80;1710467;82;21268;-70
2021/07/21 09:00:13;;;;;;;9.47;8.00;;;;;;;23.87;63.26;99809.41;1711912;82;21040;-73
2021/07/21 09:02:51;;;;;;;9.63;7.80;;;;;;;23.90;63.49;99815.30;1670152;84;21093;-68
2021/07/21 09:05:19;;;;;;;11.03;8.63;;;;;;;23.88;62.45;99814.29;1673910;84;21094;-71
2021/07/21 09:07:47;;;;;;;9.40;7.70;;;;;;;23.84;62.94;99810.72;1669446;84;21035;-70
2021/07/21 09:10:18;;;;;;;10.33;8.13;;;;;;;23.80;63.03;99812.61;1664318;84;21099;-69
2021/07/21 09:12:49;;;;;;;9.23;8.00;;;;;;;23.72;63.17;99816.36;1653635;84;21081;-71
2021/07/21 09:15:22;;;;;;;11.23;7.33;;;;;;;23.70;62.66;99818.67;1670318;84;21093;-70
2021/07/21 09:18:07;;;;;;;9.17;7.30;;;;;;;23.68;61.89;99820.94;1676353;84;21568;-71
2021/07/21 09:20:40;;;;;;;9.17;6.77;;;;;;;23.68;61.36;99812.75;1671254;84;20999;-71
2021/07/21 09:23:06;;;;;;;;;;;;;;;23.71;60.17;99821.60;1667253;84;21093;-71
2021/07/21 09:25:34;;;;;;;11.33;6.87;;;;;;;23.72;59.90;99819.08;1664304;84;20510;-72
2021/07/21 09:28:05;;;;;;;9.03;7.33;;;;;;;23.80;60.20;99815.34;1665923;84;21098;-71
2021/07/21 09:30:36;;;;;;;10.20;7.85;;;;;;;23.94;60.33;99819.66;1665848;84;21067;-72
2021/07/21 09:33:14;;;;;;;8.68;6.67;;;;;;;24.11;59.27;99817.00;1664340;84;21633;-71
2021/07/21 09:35:55;;;;;;;9.00;7.40;;;;;;;24.24;58.38;99810.76;1666589;84;21793;-71
2021/07/21 09:38:25;;;;;;;9.90;7.28;;;;;;;24.39;58.39;99811.19;1672723;84;26516;-72
2021/07/21 09:41:04;;;;;;;9.23;6.87;;;;;;;24.61;58.41;99812.86;1669145;84;21070;-71
2021/07/21 09:43:32;;;;;;;9.60;6.77;;;;;;;24.79;57.42;99806.48;1657285;84;21130;-71
2021/07/21 09:46:09;;;;;;;8.67;6.47;;;;;;;24.87;57.76;99807.94;1671477;84;21027;-71
2021/07/21 09:48:49;;;;;;;9.77;6.27;;;;;;;24.94;57.50;99805.28;1666044;84;21043;-71
2021/07/21 09:51:31;;;;;;;8.93;6.83;;;;;;;24.98;57.13;99801.45;1662912;84;21102;-71
2021/07/21 09:54:14;;;;;;;9.73;6.87;;;;;;;24.97;56.78;99798.49;1628083;86;21129;-71
2021/07/21 09:56:41;;;;;;;9.03;7.03;;;;;;;24.91;56.44;99801.92;1623166;86;21154;-71
2021/07/21 09:59:29;;;;;;;8.17;6.63;;;;;;;24.84;56.44;99805.36;1615842;87;21111;-70
2021/07/21 10:01:56;;;;;;;10.67;6.90;;;;;;;24.82;56.31;99802.23;1632660;85;21104;-70
2021/07/21 10:04:36;;;;;;;8.77;6.90;;;;;;;24.72;56.18;99807.77;1639860;85;21059;-71
2021/07/21 10:07:17;;;;;;;8.90;7.13;;;;;;;24.66;56.64;99788.77;1644168;85;21109;-70
2021/07/21 10:09:32;;;;;;;11.40;7.70;;;;;;;24.65;56.89;99803.58;1626292;85;21179;-69
2021/07/21 10:11:59;;;;;;;8.30;6.53;;;;;;;24.65;56.63;99802.22;1637189;85;21088;-71
2021/07/21 10:14:26;;;;;;;7.73;6.23;;;;;;;24.67;56.52;99800.47;1628785;85;21056;-71
2021/07/21 10:16:54;;;;;;;9.47;6.63;;;;;;;24.67;56.16;99785.45;1650205;85;21072;-71
2021/07/21 10:19:26;;;;;;;8.80;6.50;;;;;;;24.65;55.39;99791.30;1633592;85;20995;-71
2021/07/21 10:22:01;;;;;;;8.17;6.20;;;;;;;24.62;55.74;99792.62;1643314;85;21174;-70
2021/07/21 10:24:32;;;;;;;8.57;6.50;;;;;;;24.65;55.32;99798.12;1636287;85;21669;-71
2021/07/21 10:26:59;;;;;;;7.60;6.13;;;;;;;24.64;54.37;99795.75;1662538;85;21001;-70
2021/07/21 10:29:26;;;;;;;9.23;6.40;;;;;;;24.60;55.04;99792.97;1644383;85;21051;-72
2021/07/21 10:31:53;;;;;;;8.57;6.50;;;;;;;24.64;55.26;99793.80;1630003;87;21095;-71
2021/07/21 10:34:22;;;;;;;8.60;6.10;;;;;;;24.70;54.99;99788.80;1637251;85;21158;-71
2021/07/21 10:36:50;;;;;;;8.67;6.40;;;;;;;24.76;55.10;99790.84;1643585;86;20998;-71
2021/07/21 10:39:33;;;;;;;8.37;5.90;;;;;;;24.84;55.39;99794.44;1635332;85;21470;-72
2021/07/21 10:42:05;;;;;;;6.47;5.27;;;;;;;24.94;54.74;99793.80;1633442;87;21024;-71
2021/07/21 10:44:32;;;;;;;7.95;5.83;;;;;;;25.09;54.44;99792.00;1638195;85;21246;-71
2021/07/21 10:46:59;;;;;;;9.20;5.90;;;;;;;25.27;54.12;99790.84;1643744;85;21223;-71
2021/07/21 10:49:33;;;;;;;10.77;6.20;;;;;;;25.47;53.17;99782.67;1631893;85;21558;-71
2021/07/21 11:00:42;;;;;;;9.13;5.80;;;;;;;25.95;49.92;99787.39;1640832;85;21424;-71
2021/07/21 11:03:25;;;;;;;7.60;6.10;;;;;;;26.04;50.34;99785.11;1629092;85;21154;-71
2021/07/21 11:06:07;;;;;;;9.30;6.23;;;;;;;26.17;49.95;99791.06;1640368;83;21108;-70
2021/07/21 11:08:46;;;;;;;6.50;5.63;;;;;;;26.18;48.53;99783.05;1633261;85;21102;-70
2021/07/21 11:11:21;;;;;;;9.23;6.00;;;;;;;26.17;49.18;99782.27;1631213;85;21054;-71
2021/07/21 11:14:00;;;;;;;6.50;5.13;;;;;;;26.21;48.85;99786.39;1628681;85;21319;-70
2021/07/21 11:16:45;;;;;;;8.03;5.57;;;;;;;26.17;47.75;99783.64;1637378;86;21009;-71
2021/07/21 11:19:45;;;;;;;6.80;5.00;;;;;;;26.07;47.29;99786.31;1639767;85;21047;-71
2021/07/21 11:22:24;;;;;;;8.73;5.40;;;;;;;25.99;47.56;99794.25;1646602;85;21684;-71
2021/07/21 11:25:15;;;;;;;6.77;5.27;;;;;;;25.84;47.51;99784.58;1629294;85;21166;-71
2021/07/21 11:28:03;;;;;;;7.25;5.10;;;;;;;25.73;48.06;99795.41;1640329;85;21517;-69
2021/07/21 11:30:58;;;;;;;6.57;5.27;;;;;;;25.63;47.29;99797.47;1630098;85;21075;-70
2021/07/21 11:33:54;;;;;;;7.50;5.17;;;;;;;25.56;48.02;99798.75;1636508;85;21064;-69
2021/07/21 11:36:48;;;;;;;7.07;5.50;;;;;;;25.56;49.01;99801.48;1656139;84;21027;-69
2021/07/21 11:39:45;;;;;;;8.20;5.60;;;;;;;25.61;49.82;99803.11;1647965;85;21112;-69
2021/07/21 11:42:40;;;;;;;6.90;5.23;;;;;;;25.63;50.25;99807.59;1631467;85;21085;-70
2021/07/21 11:45:13;;;;;;;6.23;5.10;;;;;;;25.70;50.14;99802.22;1638418;85;21071;-70
2021/07/21 11:47:47;;;;;;;;;;;;;;;25.72;50.15;99799.88;1641019;85;22249;-70
2021/07/21 11:50:25;;;;;;;7.80;5.40;;;;;;;25.76;49.55;99811.63;1646298;85;20174;-71
2021/07/21 11:52:59;;;;;;;7.03;5.30;;;;;;;25.74;49.18;99805.77;1630994;85;21156;-71